createdAt,value
2022-11-13T00:00:44.063Z,101800.63
2022-11-13T00:03:30.275Z,101806.78
2022-11-13T00:06:17.475Z,101807.81
2022-11-13T00:09:03.759Z,101802.59
2022-11-13T00:11:49.809Z,101814.91
2022-11-13T00:14:35.532Z,101817.56
2022-11-13T00:17:21.458Z,101814.00
2022-11-13T00:20:07.319Z,101827.25
2022-11-13T00:22:53.102Z,101821.97
2022-11-13T00:25:39.313Z,101815.63
2022-11-13T00:28:25.836Z,101817.50
2022-11-13T00:31:14.454Z,101814.16
2022-11-13T00:37:06.377Z,101819.50
2022-11-13T00:39:56.981Z,101825.66
2022-11-13T00:42:45.377Z,101829.19
2022-11-13T00:45:31.160Z,101835.38
2022-11-13T00:48:16.926Z,101836.28
2022-11-13T00:51:04.318Z,101832.72
2022-11-13T00:53:50.307Z,101830.97
2022-11-13T00:56:35.994Z,101825.69
2022-11-13T00:59:21.792Z,101823.94
2022-11-13T01:02:07.869Z,101823.88
2022-11-13T01:04:53.805Z,101819.50
2022-11-13T01:07:39.541Z,101822.16
2022-11-13T01:10:25.512Z,101805.41
2022-11-13T01:13:11.156Z,101806.25
2022-11-13T01:15:56.868Z,101804.53
2022-11-13T01:18:43.636Z,101800.97
2022-11-13T01:21:29.604Z,101793.03
2022-11-13T01:24:15.235Z,101799.16
2022-11-13T01:27:01.095Z,101797.38
2022-11-13T01:29:46.765Z,101793.88
2022-11-13T01:32:33.716Z,101800.91
2022-11-13T01:35:19.780Z,101798.31
2022-11-13T01:38:05.376Z,101806.25
2022-11-13T01:40:51.085Z,101800.97
2022-11-13T01:43:38.855Z,101793.94
2022-11-13T01:46:29.230Z,101798.34
2022-11-13T01:49:21.116Z,101799.25
2022-11-13T01:52:11.488Z,101788.66
2022-11-13T01:55:02.684Z,101778.94
2022-11-13T01:57:48.880Z,101792.16
2022-11-13T02:00:35.027Z,101786.03
2022-11-13T02:03:20.513Z,101793.91
2022-11-13T02:06:06.623Z,101800.06
2022-11-13T02:08:52.491Z,101796.59
2022-11-13T02:11:38.219Z,101792.19
2022-11-13T02:14:26.725Z,101793.03
2022-11-13T02:17:21.308Z,101792.19
2022-11-13T02:20:08.382Z,101786.03
2022-11-13T02:23:17.705Z,101794.84
2022-11-13T02:26:05.493Z,101781.63
2022-11-13T02:28:51.223Z,101782.47
2022-11-13T02:31:37.015Z,101773.66
2022-11-13T02:34:22.699Z,101775.41
2022-11-13T02:37:08.371Z,101773.66
2022-11-13T02:39:54.179Z,101772.78
2022-11-13T02:42:39.837Z,101762.22
2022-11-13T02:45:25.975Z,101774.53
2022-11-13T02:48:11.795Z,101771.91
2022-11-13T02:50:57.373Z,101763.97
2022-11-13T02:53:43.302Z,101766.59
2022-11-13T02:56:29.740Z,101761.31
2022-11-13T02:59:15.370Z,101767.44
2022-11-13T03:02:01.136Z,101762.19
2022-11-13T03:05:14.095Z,101760.41
2022-11-13T03:07:53.398Z,101767.41
2022-11-13T03:10:39.083Z,101770.94
2022-11-13T03:13:24.754Z,101769.88
2022-11-13T03:16:14.666Z,101773.41
2022-11-13T03:19:00.781Z,101768.06
2022-11-13T03:21:46.494Z,101776.81
2022-11-13T03:24:32.757Z,101767.19
2022-11-13T03:27:18.909Z,101770.53
2022-11-13T03:30:06.612Z,101764.75
2022-11-13T03:32:55.943Z,101774.50
2022-11-13T03:35:46.669Z,101767.44
2022-11-13T03:38:34.075Z,101773.63
2022-11-13T03:41:21.283Z,101764.84
2022-11-13T03:44:07.279Z,101765.75
2022-11-13T03:46:53.010Z,101764.88
2022-11-13T03:49:38.895Z,101759.56
2022-11-13T03:52:24.410Z,101756.94
2022-11-13T03:55:10.135Z,101765.75
2022-11-13T03:57:55.951Z,101765.75
2022-11-13T04:00:43.343Z,101764.00
2022-11-13T04:03:29.138Z,101756.03
2022-11-13T04:06:14.968Z,101757.78
2022-11-13T04:09:01.068Z,101759.56
2022-11-13T04:11:46.821Z,101768.34
2022-11-13T04:14:32.666Z,101756.00
2022-11-13T04:17:18.413Z,101752.44
2022-11-13T04:20:04.295Z,101748.97
2022-11-13T04:22:49.888Z,101747.97
2022-11-13T04:25:35.626Z,101755.88
2022-11-13T04:28:21.911Z,101759.34
2022-11-13T04:31:08.119Z,101748.81
2022-11-13T04:33:53.908Z,101747.84
2022-11-13T04:36:39.824Z,101747.75
2022-11-13T04:39:25.957Z,101747.75
2022-11-13T04:42:31.015Z,101746.88
2022-11-13T04:45:21.996Z,101743.34
2022-11-13T04:48:07.846Z,101743.31
2022-11-13T04:50:53.535Z,101750.28
2022-11-13T04:53:39.186Z,101747.66
2022-11-13T04:56:24.777Z,101755.53
2022-11-13T04:59:10.833Z,101755.56
2022-11-13T05:01:56.724Z,101750.06
2022-11-13T05:04:42.826Z,101758.81
2022-11-13T05:07:29.655Z,101761.34
2022-11-13T05:10:15.626Z,101754.38
2022-11-13T05:13:01.342Z,101757.94
2022-11-13T05:15:47.155Z,101759.66
2022-11-13T05:18:34.563Z,101758.00
2022-11-13T05:21:20.487Z,101759.66
2022-11-13T05:24:06.494Z,101764.91
2022-11-13T05:26:52.548Z,101770.06
2022-11-13T05:29:38.583Z,101775.44
2022-11-13T05:32:24.334Z,101783.25
2022-11-13T05:35:10.115Z,101781.34
2022-11-13T05:37:55.921Z,101788.56
2022-11-13T05:40:41.769Z,101792.97
2022-11-13T05:43:27.465Z,101789.38
2022-11-13T05:46:17.266Z,101788.63
2022-11-13T05:49:03.793Z,101775.53
2022-11-13T05:51:49.983Z,101772.75
2022-11-13T05:54:35.754Z,101778.06
2022-11-13T05:57:21.633Z,101770.91
2022-11-13T06:00:07.807Z,101755.31
2022-11-13T06:02:53.753Z,101761.44
2022-11-13T06:05:39.730Z,101757.03
2022-11-13T06:08:26.139Z,101786.91
2022-11-13T06:12:55.528Z,101785.03
2022-11-13T06:15:37.684Z,101800.94
2022-11-13T06:18:26.650Z,101819.44
2022-11-13T06:21:19.572Z,101814.13
2022-11-13T06:24:07.101Z,101820.28
2022-11-13T06:26:53.822Z,101824.50
2022-11-13T06:29:40.032Z,101820.06
2022-11-13T06:32:26.134Z,101811.28
2022-11-13T06:35:11.926Z,101821.03
2022-11-13T06:37:57.809Z,101821.94
2022-11-13T06:40:43.895Z,101820.16
2022-11-13T06:43:30.648Z,101821.97
2022-11-13T06:46:19.601Z,101831.59
2022-11-13T06:49:05.456Z,101824.78
2022-11-13T06:51:51.167Z,101819.28
2022-11-13T06:54:36.923Z,101835.22
2022-11-13T06:57:23.173Z,101833.47
2022-11-13T07:00:11.342Z,101834.38
2022-11-13T07:02:57.683Z,101837.00
2022-11-13T07:05:43.912Z,101848.50
2022-11-13T07:08:29.976Z,101844.09
2022-11-13T07:11:19.653Z,101839.78
2022-11-13T07:14:05.823Z,101847.78
2022-11-13T07:17:08.550Z,101853.91
2022-11-13T07:19:55.627Z,101862.75
2022-11-13T07:22:41.682Z,101861.94
2022-11-13T07:25:28.138Z,101854.78
2022-11-13T07:28:14.288Z,101858.47
2022-11-13T07:31:01.223Z,101866.59
2022-11-13T07:33:48.909Z,101862.28
2022-11-13T07:36:35.026Z,101876.44
2022-11-13T07:39:20.888Z,101879.22
2022-11-13T07:42:06.533Z,101874.78
2022-11-13T07:44:54.901Z,101866.03
2022-11-13T07:47:41.302Z,101867.88
2022-11-13T07:50:31.058Z,101883.72
2022-11-13T07:53:17.684Z,101881.00
2022-11-13T07:56:03.889Z,101883.78
2022-11-13T07:58:50.258Z,101874.13
2022-11-13T08:01:36.910Z,101875.88
2022-11-13T08:04:49.345Z,101868.81
2022-11-13T08:07:35.495Z,101876.75
2022-11-13T08:10:21.530Z,101867.09
2022-11-13T08:13:10.291Z,101858.25
2022-11-13T08:15:59.234Z,101861.78
2022-11-13T08:18:45.243Z,101860.94
2022-11-13T08:21:31.090Z,101862.31
2022-11-13T08:24:16.915Z,101870.31
2022-11-13T08:27:02.917Z,101875.47
2022-11-13T08:29:49.469Z,101876.34
2022-11-13T08:32:35.193Z,101874.22
2022-11-13T08:35:26.487Z,101867.47
2022-11-13T08:38:15.045Z,101859.28
2022-11-13T08:41:08.598Z,101856.84
2022-11-13T08:43:55.460Z,101848.34
2022-11-13T08:46:41.203Z,101850.41
2022-11-13T08:49:26.998Z,101850.06
2022-11-13T08:52:12.628Z,101855.41
2022-11-13T08:54:58.785Z,101853.41
2022-11-13T08:57:44.569Z,101867.16
2022-11-13T09:00:30.823Z,101869.91
2022-11-13T09:03:16.832Z,101871.47
2022-11-13T09:06:09.123Z,101870.13
2022-11-13T09:08:55.137Z,101884.91
2022-11-13T09:11:40.905Z,101893.63
2022-11-13T09:14:28.172Z,101896.63
2022-11-13T09:17:14.303Z,101888.28
2022-11-13T09:20:03.909Z,101893.91
2022-11-13T09:23:03.410Z,101897.28
2022-11-13T09:25:49.219Z,101895.25
2022-11-13T09:28:35.530Z,101886.66
2022-11-13T09:31:21.403Z,101886.69
2022-11-13T09:34:08.702Z,101882.94
2022-11-13T09:36:54.723Z,101892.53
2022-11-13T09:39:40.613Z,101900.00
2022-11-13T09:42:29.365Z,101892.16
2022-11-13T09:45:15.881Z,101879.72
2022-11-13T09:48:20.360Z,101874.13
2022-11-13T09:51:16.602Z,101872.44
2022-11-13T09:54:09.856Z,101873.00
2022-11-13T09:57:10.543Z,101866.59
2022-11-13T10:00:08.808Z,101848.09
2022-11-13T10:03:20.365Z,101822.59
2022-11-13T10:06:25.717Z,101812.97
2022-11-13T10:09:32.545Z,101808.56
2022-11-13T10:12:20.802Z,101806.03
2022-11-13T10:15:10.236Z,101807.44
2022-11-13T10:18:18.377Z,101803.31
2022-11-13T10:21:42.351Z,101809.19
2022-11-13T10:24:34.255Z,101825.88
2022-11-13T10:27:20.155Z,101820.84
2022-11-13T10:30:13.022Z,101820.66
2022-11-13T10:33:04.789Z,101815.88
2022-11-13T10:36:17.687Z,101818.13
2022-11-13T10:39:07.155Z,101809.50
2022-11-13T10:41:54.985Z,101791.31
2022-11-13T10:44:41.190Z,101790.13
2022-11-13T10:48:01.971Z,101786.75
2022-11-13T10:50:37.857Z,101780.00
2022-11-13T10:53:26.576Z,101780.38
2022-11-13T10:56:32.367Z,101782.44
2022-11-13T10:59:19.640Z,101774.47
2022-11-13T11:02:26.575Z,101771.19
2022-11-13T11:05:24.971Z,101762.88
2022-11-13T11:08:11.491Z,101767.47
2022-11-13T11:11:36.685Z,101769.03
2022-11-13T11:14:34.145Z,101771.47
2022-11-13T11:17:25.390Z,101751.63
2022-11-13T11:20:33.509Z,101759.00
2022-11-13T11:23:41.621Z,101755.22
2022-11-13T11:26:34.027Z,101752.56
2022-11-13T11:29:28.363Z,101746.72
2022-11-13T11:32:31.357Z,101747.66
2022-11-13T11:35:29.735Z,101742.25
2022-11-13T11:38:40.153Z,101735.38
2022-11-13T11:41:36.683Z,101726.66
2022-11-13T11:44:40.684Z,101722.22
2022-11-13T11:47:27.898Z,101713.31
2022-11-13T11:50:16.379Z,101717.81
2022-11-13T11:53:05.088Z,101711.66
2022-11-13T11:56:38.444Z,101702.91
2022-11-13T11:59:47.478Z,101697.25
2022-11-13T12:03:01.985Z,101696.38
2022-11-13T12:06:29.224Z,101691.22
2022-11-13T12:10:02.464Z,101691.81
2022-11-13T12:13:18.529Z,101686.63
2022-11-13T12:16:34.319Z,101687.38
2022-11-13T12:19:56.673Z,101684.28
2022-11-13T12:23:02.463Z,101677.25
2022-11-13T12:25:54.662Z,101665.50
2022-11-13T12:28:51.100Z,101655.94
2022-11-13T12:31:42.947Z,101659.19
2022-11-13T12:34:55.552Z,101658.44
2022-11-13T12:37:46.583Z,101645.00
2022-11-13T12:40:42.880Z,101639.97
2022-11-13T12:43:50.276Z,101646.19
2022-11-13T12:46:40.182Z,101633.25
2022-11-13T12:49:28.340Z,101637.63
2022-11-13T12:52:22.954Z,101629.53
2022-11-13T12:55:26.553Z,101616.03
2022-11-13T12:58:26.286Z,101618.06
2022-11-13T13:01:12.351Z,101610.97
2022-11-13T13:03:58.017Z,101605.91
2022-11-13T13:07:04.517Z,101604.94
2022-11-13T13:09:51.120Z,101599.78
2022-11-13T13:12:55.034Z,101610.44
2022-11-13T13:15:56.812Z,101616.06
2022-11-13T13:18:42.823Z,101611.75
2022-11-13T13:21:43.300Z,101606.66
2022-11-13T13:24:37.507Z,101609.41
2022-11-13T13:27:28.335Z,101606.91
2022-11-13T13:30:23.061Z,101605.75
2022-11-13T13:33:40.844Z,101613.84
2022-11-13T13:36:43.225Z,101613.81
2022-11-13T13:40:11.027Z,101604.19
2022-11-13T13:43:21.063Z,101599.47
2022-11-13T13:46:15.694Z,101610.25
2022-11-13T13:49:18.097Z,101602.41
2022-11-13T13:52:15.678Z,101604.78
2022-11-13T13:55:04.585Z,101604.72
2022-11-13T13:57:50.786Z,101607.41
2022-11-13T14:00:53.292Z,101596.13
2022-11-13T14:03:43.449Z,101600.47
2022-11-13T14:06:29.548Z,101600.66
2022-11-13T14:09:24.961Z,101599.81
2022-11-13T14:12:21.879Z,101609.47
2022-11-13T14:15:21.308Z,101609.50
2022-11-13T14:21:00.250Z,101604.13
2022-11-13T14:23:51.869Z,101606.88
2022-11-13T14:26:38.321Z,101606.91
2022-11-13T14:29:34.257Z,101606.81
2022-11-13T14:32:23.889Z,101607.81
2022-11-13T14:35:24.559Z,101607.94
2022-11-13T14:38:33.509Z,101607.06
2022-11-13T14:41:33.717Z,101618.53
2022-11-13T14:44:31.984Z,101615.00
2022-11-13T14:47:24.794Z,101619.44
2022-11-13T14:50:22.074Z,101616.78
2022-11-13T14:53:10.372Z,101607.06
2022-11-13T14:56:02.409Z,101610.63
2022-11-13T14:58:48.346Z,101615.03
2022-11-13T15:01:34.932Z,101605.34
2022-11-13T15:04:21.028Z,101614.03
2022-11-13T15:07:30.025Z,101599.16
2022-11-13T15:10:18.940Z,101601.84
2022-11-13T15:16:29.288Z,101601.78
2022-11-13T15:19:37.109Z,101595.66
2022-11-13T15:22:28.440Z,101598.31
2022-11-13T15:25:16.817Z,101601.00
2022-11-13T15:28:04.211Z,101595.69
2022-11-13T15:30:57.901Z,101601.00
2022-11-13T15:33:43.715Z,101600.19
2022-11-13T15:36:29.464Z,101606.38
2022-11-13T15:39:24.886Z,101608.13
2022-11-13T15:42:16.115Z,101603.72
2022-11-13T15:45:03.246Z,101602.84
2022-11-13T15:47:49.505Z,101600.13
2022-11-13T15:50:35.192Z,101601.91
2022-11-13T15:53:21.068Z,101601.06
2022-11-13T15:56:10.036Z,101597.50
2022-11-13T15:58:55.918Z,101601.00
2022-11-13T16:01:42.356Z,101595.72
2022-11-13T16:04:50.464Z,101593.06
2022-11-13T16:07:34.709Z,101585.13
2022-11-13T16:10:25.117Z,101587.69
2022-11-13T16:13:12.434Z,101587.69
2022-11-13T16:16:01.550Z,101583.25
2022-11-13T16:18:47.459Z,101586.84
2022-11-13T16:21:33.304Z,101578.97
2022-11-13T16:24:22.938Z,101589.47
2022-11-13T16:27:16.635Z,101590.25
2022-11-13T16:30:06.820Z,101593.53
2022-11-13T16:32:54.261Z,101595.38
2022-11-13T16:36:11.600Z,101590.19
2022-11-13T16:38:57.774Z,101581.41
2022-11-13T16:41:46.541Z,101591.06
2022-11-13T16:44:32.618Z,101592.03
2022-11-13T16:47:24.455Z,101593.75
2022-11-13T16:50:17.903Z,101595.53
2022-11-13T16:53:04.096Z,101604.38
2022-11-13T16:55:49.776Z,101606.06
2022-11-13T16:58:35.737Z,101600.81
2022-11-13T17:01:22.496Z,101606.16
2022-11-13T17:04:13.215Z,101607.00
2022-11-13T17:06:59.198Z,101612.31
2022-11-13T17:09:45.743Z,101612.31
2022-11-13T17:12:31.789Z,101604.19
2022-11-13T17:15:18.899Z,101609.41
2022-11-13T17:18:04.848Z,101600.75
2022-11-13T17:20:51.071Z,101597.28
2022-11-13T17:23:37.567Z,101605.22
2022-11-13T17:26:24.032Z,101606.13
2022-11-13T17:29:10.086Z,101605.25
2022-11-13T17:31:55.993Z,101603.56
2022-11-13T17:34:43.404Z,101605.34
2022-11-13T17:37:29.632Z,101602.72
2022-11-13T17:40:15.769Z,101603.59
2022-11-13T17:43:02.131Z,101609.72
2022-11-13T17:45:55.629Z,101605.38
2022-11-13T17:48:43.321Z,101603.59
2022-11-13T17:51:29.879Z,101615.91
2022-11-13T17:54:16.006Z,101615.88
2022-11-13T17:57:02.357Z,101608.81
2022-11-13T17:59:48.324Z,101622.00
2022-11-13T18:02:34.210Z,101611.44
2022-11-13T18:05:20.158Z,101610.53
2022-11-13T18:08:44.334Z,101618.47
2022-11-13T18:11:29.870Z,101614.97
2022-11-13T18:14:15.855Z,101618.44
2022-11-13T18:17:02.254Z,101614.09
2022-11-13T18:19:48.227Z,101624.66
2022-11-13T18:22:34.135Z,101620.25
2022-11-13T18:25:20.132Z,101617.63
2022-11-13T18:28:06.130Z,101620.28
2022-11-13T18:30:56.529Z,101621.16
2022-11-13T18:33:42.991Z,101612.38
2022-11-13T18:36:29.332Z,101623.84
2022-11-13T18:39:16.929Z,101619.41
2022-11-13T18:42:03.103Z,101612.38
2022-11-13T18:44:49.292Z,101602.75
2022-11-13T18:48:07.064Z,101618.59
2022-11-13T18:51:00.017Z,101613.34
2022-11-13T18:53:48.975Z,101612.44
2022-11-13T18:56:35.202Z,101615.09
2022-11-13T18:59:21.388Z,101613.31
2022-11-13T19:02:07.164Z,101622.13
2022-11-13T19:04:55.221Z,101622.13
2022-11-13T19:07:41.290Z,101618.56
2022-11-13T19:10:27.526Z,101618.59
2022-11-13T19:13:13.742Z,101629.16
2022-11-13T19:16:05.025Z,101619.47
2022-11-13T19:18:53.812Z,101634.38
2022-11-13T19:21:40.802Z,101635.28
2022-11-13T19:24:27.152Z,101633.44
2022-11-13T19:27:13.400Z,101646.72
2022-11-13T19:29:59.176Z,101639.63
2022-11-13T19:32:44.925Z,101642.31
2022-11-13T19:35:30.769Z,101629.00
2022-11-13T19:38:17.174Z,101640.41
2022-11-13T19:41:04.541Z,101644.91
2022-11-13T19:43:50.788Z,101640.56
2022-11-13T19:46:36.834Z,101643.09
2022-11-13T19:49:22.451Z,101642.78
2022-11-13T19:52:08.495Z,101641.88
2022-11-13T19:54:54.310Z,101648.97
2022-11-13T19:57:45.087Z,101650.78
2022-11-13T20:00:32.292Z,101651.72
2022-11-13T20:03:18.274Z,101642.19
2022-11-13T20:06:05.461Z,101649.31
2022-11-13T20:08:51.334Z,101642.22
2022-11-13T20:11:37.097Z,101647.44
2022-11-13T20:14:22.979Z,101649.03
2022-11-13T20:17:08.949Z,101635.72
2022-11-13T20:19:54.673Z,101637.47
2022-11-13T20:22:40.957Z,101637.50
2022-11-13T20:25:29.986Z,101633.19
2022-11-13T20:28:16.068Z,101637.59
2022-11-13T20:31:08.604Z,101638.34
2022-11-13T20:34:01.126Z,101639.31
2022-11-13T20:36:47.439Z,101637.63
2022-11-13T20:39:34.509Z,101641.19
2022-11-13T20:42:21.560Z,101635.97
2022-11-13T20:45:08.112Z,101631.56
2022-11-13T20:47:54.330Z,101628.00
2022-11-13T20:50:40.010Z,101636.75
2022-11-13T20:53:26.063Z,101627.69
2022-11-13T20:56:14.534Z,101639.91
2022-11-13T20:59:00.821Z,101636.69
2022-11-13T21:01:46.744Z,101632.41
2022-11-13T21:04:32.420Z,101631.50
2022-11-13T21:07:18.777Z,101639.41
2022-11-13T21:10:06.199Z,101634.91
2022-11-13T21:12:52.522Z,101628.88
2022-11-13T21:15:38.551Z,101630.16
2022-11-13T21:18:25.092Z,101638.31
2022-11-13T21:21:13.979Z,101633.69
2022-11-13T21:24:00.129Z,101637.25
2022-11-13T21:26:49.459Z,101635.72
2022-11-13T21:29:35.295Z,101628.50
2022-11-13T21:32:21.104Z,101631.06
2022-11-13T21:35:07.120Z,101626.69
2022-11-13T21:37:58.699Z,101624.09
2022-11-13T21:41:04.651Z,101622.44
2022-11-13T21:44:03.280Z,101625.97
2022-11-13T21:46:49.201Z,101620.91
2022-11-13T21:49:35.416Z,101617.38
2022-11-13T21:52:21.243Z,101619.94
2022-11-13T21:55:07.680Z,101615.75
2022-11-13T21:57:54.289Z,101627.13
2022-11-13T22:00:40.486Z,101621.72
2022-11-13T22:03:27.101Z,101619.91
2022-11-13T22:06:20.907Z,101622.63
2022-11-13T22:09:13.077Z,101622.75
2022-11-13T22:11:59.302Z,101625.31
2022-11-13T22:14:45.508Z,101630.47
2022-11-13T22:17:31.337Z,101628.69
2022-11-13T22:20:17.512Z,101616.16
2022-11-13T22:23:05.587Z,101611.84
2022-11-13T22:25:55.752Z,101620.59
2022-11-13T22:28:45.596Z,101607.06
2022-11-13T22:31:32.846Z,101608.19
2022-11-13T22:34:19.005Z,101606.16
2022-11-13T22:37:04.770Z,101611.56
2022-11-13T22:39:58.727Z,101612.31
2022-11-13T22:42:44.793Z,101608.69
2022-11-13T22:45:30.830Z,101613.41
2022-11-13T22:48:16.488Z,101602.75
2022-11-13T22:51:03.820Z,101611.53
2022-11-13T22:53:55.093Z,101619.56
2022-11-13T22:56:41.965Z,101610.94
2022-11-13T22:59:28.031Z,101607.44
2022-11-13T23:02:13.824Z,101612.78
2022-11-13T23:04:59.672Z,101600.50
2022-11-13T23:07:45.569Z,101603.94
2022-11-13T23:10:31.698Z,101589.78
2022-11-13T23:13:17.454Z,101597.84
2022-11-13T23:16:03.271Z,101587.25
2022-11-13T23:18:49.864Z,101585.53
2022-11-13T23:21:35.978Z,101592.34
2022-11-13T23:24:23.435Z,101581.06
2022-11-13T23:27:09.325Z,101581.94
2022-11-13T23:29:55.639Z,101579.38
2022-11-13T23:32:41.381Z,101582.81
2022-11-13T23:35:27.624Z,101582.88
2022-11-13T23:38:14.090Z,101582.81
2022-11-13T23:41:01.301Z,101586.19
2022-11-13T23:44:07.691Z,101583.56
2022-11-13T23:46:53.009Z,101582.78
2022-11-13T23:49:38.909Z,101582.88
2022-11-13T23:52:25.154Z,101591.63
2022-11-13T23:55:11.501Z,101582.13
2022-11-13T23:58:02.935Z,101585.56
